Time;durP1;ratioP1;P1;durP2;ratioP2;P2;SDS_P1;SDS_P2;PMS_P1;PMS_P2;Temp;Humidity;BMP_temperature;BMP_pressure;BME280_temperature;BME280_humidity;BME280_pressure;Samples;Min_cycle;Max_cycle;Signal;HPM_P1;HPM_P2
2023/07/12 00:16:19;;;;;;;15.50;11.60;;;;;;;17.08;60.63;98437.47;434938;1266;371055;-44
2023/07/12 00:26:24;;;;;;;18.90;11.50;;;;;;;17.08;60.94;98424.43;435282;1251;97899;-43
2023/07/12 00:36:31;;;;;;;19.20;14.30;;;;;;;17.12;61.17;98421.09;435517;1257;108343;-42
2023/07/12 00:46:42;;;;;;;19.50;14.60;;;;;;;16.96;61.66;98408.36;435380;1251;97883;-43
2023/07/12 00:56:49;;;;;;;17.60;11.50;;;;;;;16.83;62.03;98408.98;435307;1256;110143;-43
2023/07/12 01:06:56;;;;;;;18.70;12.20;;;;;;;16.82;62.19;98416.19;435330;1264;108268;-42
2023/07/12 01:17:06;;;;;;;15.30;11.60;;;;;;;16.78;62.69;98406.64;436130;1251;97858;-42
2023/07/12 01:27:14;;;;;;;16.90;12.50;;;;;;;16.60;63.37;98386.05;435352;1251;109858;-43
2023/07/12 01:37:21;;;;;;;14.60;11.50;;;;;;;16.44;64.13;98374.11;435396;1256;107491;-42
2023/07/12 01:47:28;;;;;;;17.30;11.70;;;;;;;16.38;64.62;98363.03;435140;1251;96658;-43
2023/07/12 01:57:35;;;;;;;17.90;11.40;;;;;;;16.30;65.17;98351.32;435260;1251;111035;-42
2023/07/12 02:07:42;;;;;;;16.40;10.60;;;;;;;16.27;65.26;98328.33;435266;1255;110316;-42
2023/07/12 02:17:50;;;;;;;17.00;11.30;;;;;;;16.29;65.75;98309.96;435260;1254;97899;-42
2023/07/12 02:27:57;;;;;;;16.00;10.50;;;;;;;16.29;65.48;98287.81;435418;1255;110689;-42
2023/07/12 02:38:04;;;;;;;15.60;9.80;;;;;;;16.32;65.14;98273.63;435278;1256;108854;-43
2023/07/12 02:48:11;;;;;;;12.90;9.20;;;;;;;16.45;64.96;98276.20;435293;1251;96735;-42
2023/07/12 02:58:19;;;;;;;12.10;9.40;;;;;;;16.55;64.62;98266.86;435311;1254;107616;-43
2023/07/12 03:08:25;;;;;;;13.20;11.10;;;;;;;16.63;64.48;98250.22;435230;1251;97772;-42
2023/07/12 03:18:33;;;;;;;14.50;9.90;;;;;;;16.83;64.73;98237.85;435284;1251;108612;-43
2023/07/12 03:28:40;;;;;;;13.60;9.20;;;;;;;17.37;64.67;98234.21;435201;1251;108678;-43
2023/07/12 03:38:47;;;;;;;13.40;8.50;;;;;;;18.20;63.58;98248.92;435311;1251;97892;-43
2023/07/12 03:48:54;;;;;;;9.30;8.20;;;;;;;18.55;62.36;98250.85;435397;1251;108451;-42
2023/07/12 03:59:02;;;;;;;16.00;8.70;;;;;;;18.71;61.76;98249.66;435398;1251;98524;-42
2023/07/12 04:09:10;;;;;;;13.90;8.20;;;;;;;19.64;60.76;98240.15;435401;1256;109506;-43
2023/07/12 04:19:17;;;;;;;10.90;5.90;;;;;;;21.08;58.72;98220.82;435293;1251;108346;-42
2023/07/12 04:29:24;;;;;;;9.10;5.60;;;;;;;22.09;56.83;98197.51;435434;1251;117673;-44
2023/07/12 04:39:31;;;;;;;12.20;5.80;;;;;;;22.72;54.57;98182.69;435254;1251;108704;-43
2023/07/12 04:49:38;;;;;;;12.20;6.50;;;;;;;23.10;53.71;98174.44;435318;1256;97977;-42
2023/07/12 04:59:45;;;;;;;10.50;6.00;;;;;;;23.28;52.56;98175.41;435125;1257;110365;-42
2023/07/12 05:09:52;;;;;;;15.40;5.50;;;;;;;23.82;50.64;98167.94;435261;1251;107493;-42
2023/07/12 05:20:00;;;;;;;9.90;5.60;;;;;;;24.13;49.71;98160.70;435429;1253;97236;-43
2023/07/12 05:30:09;;;;;;;12.50;6.30;;;;;;;23.83;50.08;98160.48;435417;1251;106713;-43
2023/07/12 05:40:15;;;;;;;14.30;5.50;;;;;;;24.86;49.19;98164.63;435232;1251;97502;-41
2023/07/12 05:50:21;;;;;;;;;;;;;;;25.10;48.54;98191.57;435505;1254;109967;-41
2023/07/12 06:00:28;;;;;;;19.50;6.80;;;;;;;25.50;48.02;98190.50;435211;1251;108642;-42
2023/07/12 06:10:36;;;;;;;12.50;5.50;;;;;;;25.05;47.59;98173.34;435362;1251;97893;-41
2023/07/12 06:20:41;;;;;;;;;;;;;;;24.55;48.05;98153.11;435446;1255;111113;-42
2023/07/12 06:30:47;;;;;;;14.90;6.10;;;;;;;24.44;48.63;98138.22;435344;1255;107454;-42
2023/07/12 06:40:55;;;;;;;12.00;6.50;;;;;;;25.25;48.02;98126.08;435387;1251;97460;-40
2023/07/12 06:51:02;;;;;;;14.70;6.30;;;;;;;25.47;47.49;98111.08;435272;1254;110702;-40
2023/07/12 07:01:09;;;;;;;9.10;5.90;;;;;;;25.69;47.75;98103.61;435359;1256;107790;-41
2023/07/12 07:11:17;;;;;;;9.80;6.40;;;;;;;26.14;47.96;98111.30;435414;1255;96642;-41
2023/07/12 07:21:24;;;;;;;10.60;6.20;;;;;;;26.46;47.51;98091.76;435386;1251;111551;-42
2023/07/12 07:31:31;;;;;;;13.10;6.50;;;;;;;26.74;47.06;98073.28;435438;1256;107866;-41
2023/07/12 07:41:38;;;;;;;8.30;7.10;;;;;;;26.64;46.76;98061.09;435275;1256;96680;-42
2023/07/12 07:51:44;;;;;;;8.10;7.30;;;;;;;26.76;47.07;98037.05;435211;1256;109663;-41
2023/07/12 08:01:51;;;;;;;14.10;8.80;;;;;;;27.35;46.79;98031.63;435358;1251;108831;-41
2023/07/12 08:11:58;;;;;;;9.60;8.20;;;;;;;28.27;45.89;98035.94;435197;1255;96924;-41
2023/07/12 08:22:04;;;;;;;11.90;8.80;;;;;;;28.83;45.30;98046.81;435297;1251;110319;-42
2023/07/12 08:32:09;;;;;;;;;;;;;;;28.62;44.53;98032.69;435259;1254;109130;-43
2023/07/12 08:52:34;;;;;;;20.20;10.20;;;;;;;28.95;45.32;98035.27;435246;1256;109624;-43
2023/07/12 09:02:41;;;;;;;13.10;10.10;;;;;;;29.33;44.78;98052.98;435216;1256;107326;-42
2023/07/12 09:12:53;;;;;;;12.90;9.70;;;;;;;29.17;44.51;98069.98;435252;1257;97866;-42
2023/07/12 09:23:01;;;;;;;20.00;9.80;;;;;;;28.78;45.01;98076.81;435292;1251;109626;-41
2023/07/12 09:33:16;;;;;;;12.60;9.50;;;;;;;28.69;45.44;98094.92;435256;1251;108558;-41
2023/07/12 09:43:25;;;;;;;14.30;10.40;;;;;;;28.24;45.52;98110.67;435570;1251;97887;-41
2023/07/12 09:53:35;;;;;;;13.80;10.10;;;;;;;26.96;46.70;98148.63;435458;1255;111008;-42
2023/07/12 10:13:55;;;;;;;11.40;8.20;;;;;;;23.55;53.69;98163.81;435259;1251;97922;-44
2023/07/12 10:24:12;;;;;;;13.70;10.10;;;;;;;23.22;56.07;98134.67;435220;1256;109318;-43
2023/07/12 10:34:19;;;;;;;14.80;10.70;;;;;;;23.76;57.76;98123.70;435306;1251;107311;-43
2023/07/12 10:44:31;;;;;;;17.50;10.20;;;;;;;24.81;58.61;98111.69;435445;1256;97900;-41
2023/07/12 10:54:51;;;;;;;11.40;10.20;;;;;;;25.33;59.28;98106.15;435378;1255;110787;-40
2023/07/12 11:05:00;;;;;;;13.30;9.70;;;;;;;26.11;59.56;98109.73;435449;1251;107509;-41
2023/07/12 11:15:16;;;;;;;11.90;10.60;;;;;;;26.22;59.24;98116.65;435313;1251;96667;-40
2023/07/12 11:25:31;;;;;;;13.70;11.60;;;;;;;26.27;59.69;98109.80;435456;1254;109836;-41
2023/07/12 11:55:49;;;;;;;10.70;9.70;;;;;;;26.95;59.36;98092.86;435190;1255;110098;-42
2023/07/12 12:05:59;;;;;;;10.60;9.60;;;;;;;27.16;59.09;98085.24;435495;1257;108012;-41
2023/07/12 12:16:06;;;;;;;14.40;10.90;;;;;;;27.33;58.87;98076.88;434996;1251;477410;-41
2023/07/12 12:26:14;;;;;;;15.30;10.80;;;;;;;27.54;58.41;98081.02;435406;1256;107784;-40
2023/07/12 12:36:25;;;;;;;13.50;8.50;;;;;;;28.07;57.76;98089.82;435185;1257;96910;-41
2023/07/12 12:46:31;;;;;;;8.80;7.50;;;;;;;28.50;56.79;98092.47;435296;1251;109947;-42
2023/07/12 12:56:42;;;;;;;8.00;6.60;;;;;;;28.93;55.78;98093.31;435393;1256;107328;-41
2023/07/12 13:07:14;;;;;;;6.90;5.80;;;;;;;28.95;53.63;98095.30;435346;1257;97879;-40
2023/07/12 13:17:30;;;;;;;10.70;5.90;;;;;;;28.75;52.78;98093.85;435410;1256;110651;-42
2023/07/12 13:27:40;;;;;;;6.00;5.40;;;;;;;28.83;52.36;98101.45;435438;1257;107849;-44
2023/07/12 13:37:47;;;;;;;7.30;4.90;;;;;;;29.18;51.63;98091.31;435378;1256;97871;-41
2023/07/12 13:47:59;;;;;;;5.10;4.60;;;;;;;29.52;50.46;98083.27;435354;1256;110041;-41
2023/07/12 13:58:06;;;;;;;5.90;5.40;;;;;;;29.54;49.29;98080.75;435332;1256;108721;-42
2023/07/12 14:08:20;;;;;;;5.40;4.90;;;;;;;29.47;49.15;98073.64;435367;1255;97887;-40
2023/07/12 14:18:44;;;;;;;6.50;4.00;;;;;;;29.48;48.77;98067.11;435312;1251;110811;-40
2023/07/12 14:28:53;;;;;;;4.40;3.80;;;;;;;29.60;48.18;98054.99;435419;1251;108668;-41
2023/07/12 14:39:07;;;;;;;6.50;5.00;;;;;;;29.78;47.63;98050.79;435378;1264;97871;-42
2023/07/12 14:49:13;;;;;;;6.70;5.30;;;;;;;29.75;47.30;98051.38;435305;1257;111392;-42
2023/07/12 14:59:20;;;;;;;6.40;5.80;;;;;;;29.59;47.29;98051.48;435244;1251;109319;-42
2023/07/12 15:09:27;;;;;;;6.50;5.80;;;;;;;29.66;47.06;98044.96;435342;1257;97967;-41
2023/07/12 15:29:41;;;;;;;7.40;5.00;;;;;;;29.61;46.82;98041.86;435320;1251;97827;-41
2023/07/12 15:39:49;;;;;;;9.50;5.20;;;;;;;29.51;46.59;98037.52;435464;1257;109636;-42
2023/07/12 15:49:56;;;;;;;8.20;6.30;;;;;;;29.49;46.60;98018.66;435377;1256;107743;-42
2023/07/12 16:00:04;;;;;;;6.50;5.90;;;;;;;29.54;46.38;98020.04;435391;1256;97896;-42
2023/07/12 16:20:19;;;;;;;6.80;6.00;;;;;;;28.99;46.12;98014.11;435393;1256;107833;-43
2023/07/12 16:50:38;;;;;;;4.40;4.00;;;;;;;28.53;47.06;98037.59;435278;1255;108695;-41
2023/07/12 17:00:44;;;;;;;;;;;;;;;28.00;47.66;98043.10;435390;1257;97988;-42
2023/07/12 17:10:52;;;;;;;6.70;4.40;;;;;;;27.62;48.21;98042.02;435286;1256;110825;-42
2023/07/12 17:21:00;;;;;;;8.80;5.50;;;;;;;27.45;48.58;98030.85;435328;1256;107452;-41
2023/07/12 17:31:10;;;;;;;7.90;5.20;;;;;;;27.24;49.10;98036.42;435375;1251;97765;-41
2023/07/12 17:41:16;;;;;;;6.90;5.90;;;;;;;27.05;49.36;98054.90;435307;1257;109514;-43
2023/07/12 17:51:26;;;;;;;6.30;5.70;;;;;;;26.70;50.03;98074.33;435393;1256;106763;-43
2023/07/12 18:01:33;;;;;;;7.10;6.10;;;;;;;26.34;50.76;98095.38;435198;1251;96638;-42
2023/07/12 18:21:46;;;;;;;;;;;;;;;25.01;53.59;98134.76;435413;1257;108869;-42
2023/07/12 18:31:52;;;;;;;7.10;5.10;;;;;;;24.16;55.19;98151.99;435234;1257;97887;-42
2023/07/12 18:42:00;;;;;;;6.70;5.40;;;;;;;23.59;57.05;98148.59;435295;1256;110887;-42
2023/07/12 18:52:11;;;;;;;6.10;5.50;;;;;;;23.32;58.58;98154.30;435229;1251;108473;-44
2023/07/12 19:02:15;;;;;;;5.10;4.60;;;;;;;23.41;59.68;98143.40;435317;1256;97925;-43
2023/07/12 19:12:21;;;;;;;6.60;5.90;;;;;;;23.24;60.36;98136.63;435508;1251;106685;-42
2023/07/12 19:22:29;;;;;;;7.70;5.20;;;;;;;22.91;61.14;98139.47;435228;1251;97568;-43
2023/07/12 19:32:36;;;;;;;8.10;6.20;;;;;;;22.59;62.19;98142.00;435417;1251;110866;-44
2023/07/12 19:42:44;;;;;;;8.20;6.30;;;;;;;22.47;63.07;98150.89;435348;1251;107707;-42
2023/07/12 19:52:51;;;;;;;8.80;6.70;;;;;;;22.22;63.97;98171.73;435243;1256;97899;-42
2023/07/12 20:13:02;;;;;;;9.30;7.60;;;;;;;22.04;65.93;98189.60;435214;1257;97878;-41
2023/07/12 20:23:09;;;;;;;10.70;7.50;;;;;;;21.94;66.93;98194.24;435436;1257;109275;-41
2023/07/12 20:33:18;;;;;;;7.60;6.90;;;;;;;21.85;67.47;98187.63;435350;1251;108147;-43
2023/07/12 20:43:29;;;;;;;10.20;7.10;;;;;;;21.81;67.97;98189.58;435532;1251;97876;-42
2023/07/12 20:53:36;;;;;;;10.90;7.10;;;;;;;21.89;68.28;98177.71;435350;1257;107689;-42
2023/07/12 21:03:43;;;;;;;11.30;7.40;;;;;;;21.79;68.60;98167.88;435317;1251;96984;-41
2023/07/12 21:13:49;;;;;;;8.60;7.30;;;;;;;21.82;69.06;98178.55;435329;1264;110013;-42
2023/07/12 21:23:56;;;;;;;10.30;8.40;;;;;;;21.65;69.02;98203.30;435248;1255;107586;-42
2023/07/12 21:34:02;;;;;;;11.40;8.30;;;;;;;21.16;69.65;98209.56;435282;1251;97851;-43
2023/07/12 21:44:09;;;;;;;11.10;7.50;;;;;;;20.90;70.35;98186.05;435144;1254;107286;-42
2023/07/12 22:14:27;;;;;;;13.30;7.30;;;;;;;20.53;71.58;98230.23;435336;1253;109331;-42
2023/07/12 22:24:34;;;;;;;9.50;8.20;;;;;;;20.50;72.19;98241.75;435211;1257;97868;-42
2023/07/12 22:34:41;;;;;;;9.00;7.40;;;;;;;20.72;72.62;98227.81;435255;1255;108809;-41
2023/07/12 22:44:48;;;;;;;12.00;7.90;;;;;;;20.61;72.66;98238.55;435199;1257;97461;-41
2023/07/12 22:54:54;;;;;;;13.30;7.80;;;;;;;20.63;72.93;98234.84;435272;1254;112546;-41
2023/07/12 23:05:01;;;;;;;9.80;6.20;;;;;;;20.73;73.21;98233.95;435224;1251;107569;-42
2023/07/12 23:25:24;;;;;;;8.20;7.30;;;;;;;21.03;73.07;98206.45;435349;1256;106763;-41
2023/07/12 23:35:33;;;;;;;8.70;7.20;;;;;;;20.88;73.03;98200.07;435275;1251;97482;-44
2023/07/12 23:45:41;;;;;;;12.50;10.10;;;;;;;20.72;73.35;98185.30;435432;1251;109590;-42
2023/07/12 23:55:48;;;;;;;9.80;8.40;;;;;;;20.56;73.80;98181.22;435291;1251;108526;-41
